sensor_id;sensor_type;location;lat;lon;timestamp;temperature;humidity
18815;DHT22;76351;44.818;20.462;2024-02-21T00:00:08;14.90;54.00
18815;DHT22;76351;44.818;20.462;2024-02-21T00:02:37;14.80;54.90
18815;DHT22;76351;44.818;20.462;2024-02-21T00:05:05;14.90;54.80
18815;DHT22;76351;44.818;20.462;2024-02-21T00:07:35;14.90;53.90
18815;DHT22;76351;44.818;20.462;2024-02-21T00:10:03;14.90;54.60
18815;DHT22;76351;44.818;20.462;2024-02-21T00:12:31;14.80;54.50
18815;DHT22;76351;44.818;20.462;2024-02-21T00:14:59;14.90;53.70
18815;DHT22;76351;44.818;20.462;2024-02-21T00:17:26;14.80;54.20
18815;DHT22;76351;44.818;20.462;2024-02-21T00:19:54;14.80;54.50
18815;DHT22;76351;44.818;20.462;2024-02-21T00:22:21;14.80;54.20
18815;DHT22;76351;44.818;20.462;2024-02-21T00:24:51;14.80;53.70
18815;DHT22;76351;44.818;20.462;2024-02-21T00:27:18;14.80;53.80
18815;DHT22;76351;44.818;20.462;2024-02-21T00:29:46;14.80;53.90
18815;DHT22;76351;44.818;20.462;2024-02-21T00:32:14;14.80;53.80
18815;DHT22;76351;44.818;20.462;2024-02-21T00:34:43;14.80;53.10
18815;DHT22;76351;44.818;20.462;2024-02-21T00:37:11;14.80;54.00
18815;DHT22;76351;44.818;20.462;2024-02-21T00:39:41;14.80;54.50
18815;DHT22;76351;44.818;20.462;2024-02-21T00:42:11;14.80;54.40
18815;DHT22;76351;44.818;20.462;2024-02-21T00:44:39;14.80;54.20
18815;DHT22;76351;44.818;20.462;2024-02-21T00:47:06;14.80;53.30
18815;DHT22;76351;44.818;20.462;2024-02-21T00:49:34;14.70;53.20
18815;DHT22;76351;44.818;20.462;2024-02-21T00:52:02;14.70;53.60
18815;DHT22;76351;44.818;20.462;2024-02-21T00:54:32;14.70;54.50
18815;DHT22;76351;44.818;20.462;2024-02-21T00:57:00;14.60;53.70
18815;DHT22;76351;44.818;20.462;2024-02-21T00:59:29;14.60;53.40
18815;DHT22;76351;44.818;20.462;2024-02-21T01:01:58;14.60;54.40
18815;DHT22;76351;44.818;20.462;2024-02-21T01:04:26;14.60;54.40
18815;DHT22;76351;44.818;20.462;2024-02-21T01:06:53;14.60;53.20
18815;DHT22;76351;44.818;20.462;2024-02-21T01:09:21;14.60;54.50
18815;DHT22;76351;44.818;20.462;2024-02-21T01:11:52;14.50;53.80
18815;DHT22;76351;44.818;20.462;2024-02-21T01:14:19;14.50;54.10
18815;DHT22;76351;44.818;20.462;2024-02-21T01:16:50;14.50;53.70
18815;DHT22;76351;44.818;20.462;2024-02-21T01:19:21;14.50;53.60
18815;DHT22;76351;44.818;20.462;2024-02-21T01:21:51;14.50;54.40
18815;DHT22;76351;44.818;20.462;2024-02-21T01:24:19;14.40;54.00
18815;DHT22;76351;44.818;20.462;2024-02-21T01:26:46;14.40;53.90
18815;DHT22;76351;44.818;20.462;2024-02-21T01:29:14;14.40;55.20
18815;DHT22;76351;44.818;20.462;2024-02-21T01:31:42;14.40;54.40
18815;DHT22;76351;44.818;20.462;2024-02-21T01:34:11;14.40;54.50
18815;DHT22;76351;44.818;20.462;2024-02-21T01:36:38;14.40;54.50
18815;DHT22;76351;44.818;20.462;2024-02-21T01:39:10;14.30;54.10
18815;DHT22;76351;44.818;20.462;2024-02-21T01:41:37;14.30;54.70
18815;DHT22;76351;44.818;20.462;2024-02-21T01:44:05;14.30;54.90
18815;DHT22;76351;44.818;20.462;2024-02-21T01:46:32;14.30;54.00
18815;DHT22;76351;44.818;20.462;2024-02-21T01:49:01;14.30;54.60
18815;DHT22;76351;44.818;20.462;2024-02-21T01:51:31;14.30;54.70
18815;DHT22;76351;44.818;20.462;2024-02-21T01:54:00;14.30;55.00
18815;DHT22;76351;44.818;20.462;2024-02-21T01:56:28;14.30;53.80
18815;DHT22;76351;44.818;20.462;2024-02-21T01:58:56;14.30;54.10
18815;DHT22;76351;44.818;20.462;2024-02-21T02:01:24;14.30;54.40
18815;DHT22;76351;44.818;20.462;2024-02-21T02:03:52;14.30;54.70
18815;DHT22;76351;44.818;20.462;2024-02-21T02:06:20;14.30;54.60
18815;DHT22;76351;44.818;20.462;2024-02-21T02:08:49;14.30;54.90
18815;DHT22;76351;44.818;20.462;2024-02-21T02:11:17;14.30;55.00
18815;DHT22;76351;44.818;20.462;2024-02-21T02:13:45;14.30;55.00
18815;DHT22;76351;44.818;20.462;2024-02-21T02:16:13;14.30;54.90
18815;DHT22;76351;44.818;20.462;2024-02-21T02:18:40;14.30;54.80
18815;DHT22;76351;44.818;20.462;2024-02-21T02:21:13;14.30;54.50
18815;DHT22;76351;44.818;20.462;2024-02-21T02:23:44;14.30;55.40
18815;DHT22;76351;44.818;20.462;2024-02-21T02:26:12;14.30;54.50
18815;DHT22;76351;44.818;20.462;2024-02-21T02:28:41;14.30;53.10
18815;DHT22;76351;44.818;20.462;2024-02-21T02:31:08;14.30;55.10
18815;DHT22;76351;44.818;20.462;2024-02-21T02:33:36;14.30;55.00
18815;DHT22;76351;44.818;20.462;2024-02-21T02:36:07;14.30;55.00
18815;DHT22;76351;44.818;20.462;2024-02-21T02:38:35;14.30;55.30
18815;DHT22;76351;44.818;20.462;2024-02-21T02:41:04;14.30;54.50
18815;DHT22;76351;44.818;20.462;2024-02-21T02:43:32;14.30;55.30
18815;DHT22;76351;44.818;20.462;2024-02-21T02:45:59;14.20;55.10
18815;DHT22;76351;44.818;20.462;2024-02-21T02:48:27;14.20;54.20
18815;DHT22;76351;44.818;20.462;2024-02-21T02:50:55;14.20;55.20
18815;DHT22;76351;44.818;20.462;2024-02-21T02:53:22;14.20;54.90
18815;DHT22;76351;44.818;20.462;2024-02-21T02:55:50;14.20;55.10
18815;DHT22;76351;44.818;20.462;2024-02-21T02:58:19;14.20;55.10
18815;DHT22;76351;44.818;20.462;2024-02-21T03:00:46;14.20;55.00
18815;DHT22;76351;44.818;20.462;2024-02-21T03:03:14;14.20;54.90
18815;DHT22;76351;44.818;20.462;2024-02-21T03:05:41;14.20;55.30
18815;DHT22;76351;44.818;20.462;2024-02-21T03:08:11;14.20;55.20
18815;DHT22;76351;44.818;20.462;2024-02-21T03:10:39;14.20;54.10
18815;DHT22;76351;44.818;20.462;2024-02-21T03:13:07;14.20;55.00
18815;DHT22;76351;44.818;20.462;2024-02-21T03:15:36;14.10;54.50
18815;DHT22;76351;44.818;20.462;2024-02-21T03:18:04;14.20;54.90
18815;DHT22;76351;44.818;20.462;2024-02-21T03:20:35;14.20;55.40
18815;DHT22;76351;44.818;20.462;2024-02-21T03:23:03;14.20;55.10
18815;DHT22;76351;44.818;20.462;2024-02-21T03:25:31;14.20;55.20
18815;DHT22;76351;44.818;20.462;2024-02-21T03:27:58;14.20;54.90
18815;DHT22;76351;44.818;20.462;2024-02-21T03:30:26;14.10;53.50
18815;DHT22;76351;44.818;20.462;2024-02-21T03:32:56;14.10;53.90
18815;DHT22;76351;44.818;20.462;2024-02-21T03:35:23;14.10;55.10
18815;DHT22;76351;44.818;20.462;2024-02-21T03:37:53;14.20;55.10
18815;DHT22;76351;44.818;20.462;2024-02-21T03:40:21;14.20;54.50
18815;DHT22;76351;44.818;20.462;2024-02-21T03:42:48;14.10;54.80
18815;DHT22;76351;44.818;20.462;2024-02-21T03:45:19;14.10;54.50
18815;DHT22;76351;44.818;20.462;2024-02-21T03:47:47;14.10;54.80
18815;DHT22;76351;44.818;20.462;2024-02-21T03:50:16;14.00;53.70
18815;DHT22;76351;44.818;20.462;2024-02-21T03:52:45;14.10;54.00
18815;DHT22;76351;44.818;20.462;2024-02-21T03:55:18;14.00;54.10
18815;DHT22;76351;44.818;20.462;2024-02-21T03:57:53;14.00;54.70
18815;DHT22;76351;44.818;20.462;2024-02-21T04:00:21;14.00;54.20
18815;DHT22;76351;44.818;20.462;2024-02-21T04:02:49;14.00;55.20
18815;DHT22;76351;44.818;20.462;2024-02-21T04:05:18;14.00;55.20
18815;DHT22;76351;44.818;20.462;2024-02-21T04:07:47;14.00;54.50
18815;DHT22;76351;44.818;20.462;2024-02-21T04:10:15;14.00;55.30
18815;DHT22;76351;44.818;20.462;2024-02-21T04:12:43;13.90;55.40
18815;DHT22;76351;44.818;20.462;2024-02-21T04:15:11;13.90;55.20
18815;DHT22;76351;44.818;20.462;2024-02-21T04:17:38;13.90;54.70
18815;DHT22;76351;44.818;20.462;2024-02-21T04:20:13;13.90;54.80
18815;DHT22;76351;44.818;20.462;2024-02-21T04:22:43;13.90;55.50
18815;DHT22;76351;44.818;20.462;2024-02-21T04:25:11;13.90;54.90
18815;DHT22;76351;44.818;20.462;2024-02-21T04:27:44;13.90;55.70
18815;DHT22;76351;44.818;20.462;2024-02-21T04:30:14;13.80;55.30
18815;DHT22;76351;44.818;20.462;2024-02-21T04:32:43;13.80;55.50
18815;DHT22;76351;44.818;20.462;2024-02-21T04:35:14;13.80;54.50
18815;DHT22;76351;44.818;20.462;2024-02-21T04:37:45;13.80;55.00
18815;DHT22;76351;44.818;20.462;2024-02-21T04:40:14;13.80;54.50
18815;DHT22;76351;44.818;20.462;2024-02-21T04:42:43;13.80;54.50
18815;DHT22;76351;44.818;20.462;2024-02-21T04:45:11;13.80;54.60
18815;DHT22;76351;44.818;20.462;2024-02-21T04:47:43;13.70;55.10
18815;DHT22;76351;44.818;20.462;2024-02-21T04:50:10;13.70;54.50
18815;DHT22;76351;44.818;20.462;2024-02-21T04:52:42;13.70;55.10
18815;DHT22;76351;44.818;20.462;2024-02-21T04:55:11;13.70;55.10
18815;DHT22;76351;44.818;20.462;2024-02-21T04:57:43;13.70;55.20
18815;DHT22;76351;44.818;20.462;2024-02-21T05:00:17;13.70;55.00
18815;DHT22;76351;44.818;20.462;2024-02-21T05:02:48;13.60;55.40
18815;DHT22;76351;44.818;20.462;2024-02-21T05:05:16;13.60;55.10
18815;DHT22;76351;44.818;20.462;2024-02-21T05:07:43;13.60;55.40
18815;DHT22;76351;44.818;20.462;2024-02-21T05:10:12;13.50;55.90
18815;DHT22;76351;44.818;20.462;2024-02-21T05:12:40;13.50;55.80
18815;DHT22;76351;44.818;20.462;2024-02-21T05:15:08;13.50;55.90
18815;DHT22;76351;44.818;20.462;2024-02-21T05:17:36;13.40;56.00
18815;DHT22;76351;44.818;20.462;2024-02-21T05:20:05;13.40;55.70
18815;DHT22;76351;44.818;20.462;2024-02-21T05:22:35;13.40;56.30
18815;DHT22;76351;44.818;20.462;2024-02-21T05:25:02;13.30;55.50
18815;DHT22;76351;44.818;20.462;2024-02-21T05:27:32;13.30;55.50
18815;DHT22;76351;44.818;20.462;2024-02-21T05:29:59;13.30;55.30
18815;DHT22;76351;44.818;20.462;2024-02-21T05:32:27;13.30;56.20
18815;DHT22;76351;44.818;20.462;2024-02-21T05:34:54;13.30;56.10
18815;DHT22;76351;44.818;20.462;2024-02-21T05:37:24;13.30;56.20
18815;DHT22;76351;44.818;20.462;2024-02-21T05:39:52;13.40;55.30
18815;DHT22;76351;44.818;20.462;2024-02-21T05:42:19;13.40;55.70
18815;DHT22;76351;44.818;20.462;2024-02-21T05:44:49;13.40;56.10
18815;DHT22;76351;44.818;20.462;2024-02-21T05:47:16;13.40;55.70
18815;DHT22;76351;44.818;20.462;2024-02-21T05:49:46;13.40;56.40
18815;DHT22;76351;44.818;20.462;2024-02-21T05:52:14;13.40;56.50
18815;DHT22;76351;44.818;20.462;2024-02-21T05:54:42;13.40;55.90
18815;DHT22;76351;44.818;20.462;2024-02-21T05:57:10;13.40;55.80
18815;DHT22;76351;44.818;20.462;2024-02-21T05:59:38;13.50;56.00
18815;DHT22;76351;44.818;20.462;2024-02-21T06:02:09;13.50;56.10
18815;DHT22;76351;44.818;20.462;2024-02-21T06:04:37;13.50;56.30
18815;DHT22;76351;44.818;20.462;2024-02-21T06:07:06;13.40;55.80
18815;DHT22;76351;44.818;20.462;2024-02-21T06:09:44;13.50;55.90
18815;DHT22;76351;44.818;20.462;2024-02-21T06:12:12;13.50;56.40
18815;DHT22;76351;44.818;20.462;2024-02-21T06:14:39;13.50;56.10
18815;DHT22;76351;44.818;20.462;2024-02-21T06:17:09;13.50;55.00
18815;DHT22;76351;44.818;20.462;2024-02-21T06:19:40;13.50;55.50
18815;DHT22;76351;44.818;20.462;2024-02-21T06:22:08;13.50;56.00
18815;DHT22;76351;44.818;20.462;2024-02-21T06:24:37;13.50;55.40
18815;DHT22;76351;44.818;20.462;2024-02-21T06:27:05;13.50;56.00
18815;DHT22;76351;44.818;20.462;2024-02-21T06:29:33;13.50;56.30
18815;DHT22;76351;44.818;20.462;2024-02-21T06:32:02;13.50;56.30
18815;DHT22;76351;44.818;20.462;2024-02-21T06:34:32;13.50;56.20
18815;DHT22;76351;44.818;20.462;2024-02-21T06:36:59;13.50;55.60
18815;DHT22;76351;44.818;20.462;2024-02-21T06:39:27;13.50;55.50
18815;DHT22;76351;44.818;20.462;2024-02-21T06:41:55;13.50;55.50
18815;DHT22;76351;44.818;20.462;2024-02-21T06:44:23;13.60;56.40
18815;DHT22;76351;44.818;20.462;2024-02-21T06:46:50;13.60;56.30
18815;DHT22;76351;44.818;20.462;2024-02-21T06:49:20;13.60;55.60
18815;DHT22;76351;44.818;20.462;2024-02-21T06:51:49;13.60;56.10
18815;DHT22;76351;44.818;20.462;2024-02-21T06:54:16;13.60;55.50
18815;DHT22;76351;44.818;20.462;2024-02-21T06:56:44;13.60;55.90
18815;DHT22;76351;44.818;20.462;2024-02-21T06:59:12;13.70;56.00
18815;DHT22;76351;44.818;20.462;2024-02-21T07:01:45;13.70;56.20
18815;DHT22;76351;44.818;20.462;2024-02-21T07:04:13;13.70;56.40
18815;DHT22;76351;44.818;20.462;2024-02-21T07:06:43;13.70;55.10
18815;DHT22;76351;44.818;20.462;2024-02-21T07:09:14;13.70;54.90
18815;DHT22;76351;44.818;20.462;2024-02-21T07:11:43;13.70;55.70
18815;DHT22;76351;44.818;20.462;2024-02-21T07:14:13;13.80;55.90
18815;DHT22;76351;44.818;20.462;2024-02-21T07:16:42;13.80;55.60
18815;DHT22;76351;44.818;20.462;2024-02-21T07:19:10;13.80;55.70
18815;DHT22;76351;44.818;20.462;2024-02-21T07:21:45;13.80;54.60
18815;DHT22;76351;44.818;20.462;2024-02-21T07:24:16;13.90;55.60
18815;DHT22;76351;44.818;20.462;2024-02-21T07:26:47;13.90;55.40
18815;DHT22;76351;44.818;20.462;2024-02-21T07:29:15;14.00;55.20
18815;DHT22;76351;44.818;20.462;2024-02-21T07:31:43;14.00;54.70
18815;DHT22;76351;44.818;20.462;2024-02-21T07:34:11;14.00;55.10
18815;DHT22;76351;44.818;20.462;2024-02-21T07:36:41;14.00;55.60
18815;DHT22;76351;44.818;20.462;2024-02-21T07:39:09;14.00;55.80
18815;DHT22;76351;44.818;20.462;2024-02-21T07:41:38;14.00;55.40
18815;DHT22;76351;44.818;20.462;2024-02-21T07:44:07;14.00;56.00
18815;DHT22;76351;44.818;20.462;2024-02-21T07:46:35;14.00;56.00
18815;DHT22;76351;44.818;20.462;2024-02-21T07:49:02;14.10;55.90
18815;DHT22;76351;44.818;20.462;2024-02-21T07:51:30;14.10;55.40
18815;DHT22;76351;44.818;20.462;2024-02-21T07:53:58;14.10;54.90
18815;DHT22;76351;44.818;20.462;2024-02-21T07:56:27;14.10;54.70
18815;DHT22;76351;44.818;20.462;2024-02-21T07:59:00;14.10;55.50
18815;DHT22;76351;44.818;20.462;2024-02-21T08:01:27;14.10;54.90
18815;DHT22;76351;44.818;20.462;2024-02-21T08:03:55;14.10;55.90
18815;DHT22;76351;44.818;20.462;2024-02-21T08:06:23;14.10;57.00
18815;DHT22;76351;44.818;20.462;2024-02-21T08:08:50;14.10;55.50
18815;DHT22;76351;44.818;20.462;2024-02-21T08:11:18;14.20;56.20
18815;DHT22;76351;44.818;20.462;2024-02-21T08:13:46;14.20;56.00
18815;DHT22;76351;44.818;20.462;2024-02-21T08:16:15;14.20;55.80
18815;DHT22;76351;44.818;20.462;2024-02-21T08:18:44;14.20;55.90
18815;DHT22;76351;44.818;20.462;2024-02-21T08:21:12;14.30;56.20
18815;DHT22;76351;44.818;20.462;2024-02-21T08:23:40;14.30;55.90
18815;DHT22;76351;44.818;20.462;2024-02-21T08:26:08;14.30;56.50
18815;DHT22;76351;44.818;20.462;2024-02-21T08:28:35;14.40;56.20
18815;DHT22;76351;44.818;20.462;2024-02-21T08:31:03;14.40;56.40
18815;DHT22;76351;44.818;20.462;2024-02-21T08:33:32;14.40;56.50
18815;DHT22;76351;44.818;20.462;2024-02-21T08:36:00;14.50;56.40
18815;DHT22;76351;44.818;20.462;2024-02-21T08:38:31;14.50;55.70
18815;DHT22;76351;44.818;20.462;2024-02-21T08:40:59;14.60;56.00
18815;DHT22;76351;44.818;20.462;2024-02-21T08:43:29;14.60;56.10
18815;DHT22;76351;44.818;20.462;2024-02-21T08:45:59;14.70;55.70
18815;DHT22;76351;44.818;20.462;2024-02-21T08:48:27;14.80;55.30
18815;DHT22;76351;44.818;20.462;2024-02-21T08:50:57;14.80;55.70
18815;DHT22;76351;44.818;20.462;2024-02-21T08:53:24;14.90;55.70
18815;DHT22;76351;44.818;20.462;2024-02-21T08:55:52;14.90;55.60
18815;DHT22;76351;44.818;20.462;2024-02-21T08:58:20;15.00;55.40
18815;DHT22;76351;44.818;20.462;2024-02-21T09:00:49;15.00;55.50
18815;DHT22;76351;44.818;20.462;2024-02-21T09:03:17;15.00;55.40
18815;DHT22;76351;44.818;20.462;2024-02-21T09:05:46;15.10;54.00
18815;DHT22;76351;44.818;20.462;2024-02-21T09:08:15;15.10;55.10
18815;DHT22;76351;44.818;20.462;2024-02-21T09:10:43;15.10;54.00
18815;DHT22;76351;44.818;20.462;2024-02-21T09:13:11;15.10;54.10
18815;DHT22;76351;44.818;20.462;2024-02-21T09:15:38;15.20;53.80
18815;DHT22;76351;44.818;20.462;2024-02-21T09:18:06;15.20;54.50
18815;DHT22;76351;44.818;20.462;2024-02-21T09:20:35;15.20;53.90
18815;DHT22;76351;44.818;20.462;2024-02-21T09:23:03;15.20;53.30
18815;DHT22;76351;44.818;20.462;2024-02-21T09:25:35;15.20;53.20
18815;DHT22;76351;44.818;20.462;2024-02-21T09:28:03;15.20;52.70
18815;DHT22;76351;44.818;20.462;2024-02-21T09:30:34;15.20;53.70
18815;DHT22;76351;44.818;20.462;2024-02-21T09:33:04;15.20;52.30
18815;DHT22;76351;44.818;20.462;2024-02-21T09:35:35;15.30;53.80
18815;DHT22;76351;44.818;20.462;2024-02-21T09:38:03;15.30;53.00
18815;DHT22;76351;44.818;20.462;2024-02-21T09:40:37;15.30;52.90
18815;DHT22;76351;44.818;20.462;2024-02-21T09:43:06;15.40;53.00
18815;DHT22;76351;44.818;20.462;2024-02-21T09:45:34;15.40;52.90
18815;DHT22;76351;44.818;20.462;2024-02-21T09:48:25;15.40;53.10
18815;DHT22;76351;44.818;20.462;2024-02-21T09:51:01;15.40;53.30
18815;DHT22;76351;44.818;20.462;2024-02-21T09:53:33;15.40;53.30
18815;DHT22;76351;44.818;20.462;2024-02-21T09:56:04;15.50;53.30
18815;DHT22;76351;44.818;20.462;2024-02-21T09:58:38;15.50;53.80
18815;DHT22;76351;44.818;20.462;2024-02-21T10:01:07;15.50;53.60
18815;DHT22;76351;44.818;20.462;2024-02-21T10:03:35;15.50;53.30
18815;DHT22;76351;44.818;20.462;2024-02-21T10:06:02;15.60;53.70
18815;DHT22;76351;44.818;20.462;2024-02-21T10:08:30;15.60;53.90
18815;DHT22;76351;44.818;20.462;2024-02-21T10:10:58;15.60;53.10
18815;DHT22;76351;44.818;20.462;2024-02-21T10:13:30;15.70;52.60
18815;DHT22;76351;44.818;20.462;2024-02-21T10:16:02;15.80;53.40
18815;DHT22;76351;44.818;20.462;2024-02-21T10:18:29;15.80;53.40
18815;DHT22;76351;44.818;20.462;2024-02-21T10:21:06;15.90;52.60
18815;DHT22;76351;44.818;20.462;2024-02-21T10:23:44;16.00;51.70
18815;DHT22;76351;44.818;20.462;2024-02-21T10:26:15;16.00;52.40
18815;DHT22;76351;44.818;20.462;2024-02-21T10:28:44;16.00;52.60
18815;DHT22;76351;44.818;20.462;2024-02-21T10:31:22;16.10;52.50
18815;DHT22;76351;44.818;20.462;2024-02-21T10:34:02;16.10;51.90
18815;DHT22;76351;44.818;20.462;2024-02-21T10:36:31;16.20;51.40
18815;DHT22;76351;44.818;20.462;2024-02-21T10:39:05;16.20;51.50
18815;DHT22;76351;44.818;20.462;2024-02-21T10:41:55;16.30;49.90
18815;DHT22;76351;44.818;20.462;2024-02-21T10:44:33;16.30;51.20
18815;DHT22;76351;44.818;20.462;2024-02-21T10:47:08;16.40;51.50
18815;DHT22;76351;44.818;20.462;2024-02-21T10:49:40;16.40;51.30
18815;DHT22;76351;44.818;20.462;2024-02-21T10:52:28;16.40;50.00
18815;DHT22;76351;44.818;20.462;2024-02-21T10:55:07;16.50;51.00
18815;DHT22;76351;44.818;20.462;2024-02-21T10:57:37;16.50;51.50
18815;DHT22;76351;44.818;20.462;2024-02-21T11:00:10;16.50;50.60
18815;DHT22;76351;44.818;20.462;2024-02-21T11:02:39;16.50;50.90
18815;DHT22;76351;44.818;20.462;2024-02-21T11:05:07;16.40;50.90
18815;DHT22;76351;44.818;20.462;2024-02-21T11:07:37;16.40;51.00
18815;DHT22;76351;44.818;20.462;2024-02-21T11:10:19;16.40;51.00
18815;DHT22;76351;44.818;20.462;2024-02-21T11:12:48;16.30;51.10
18815;DHT22;76351;44.818;20.462;2024-02-21T11:15:17;16.30;49.60
18815;DHT22;76351;44.818;20.462;2024-02-21T11:17:54;16.30;50.70
18815;DHT22;76351;44.818;20.462;2024-02-21T11:20:32;16.30;50.60
18815;DHT22;76351;44.818;20.462;2024-02-21T11:23:04;16.30;50.60
18815;DHT22;76351;44.818;20.462;2024-02-21T11:25:35;16.30;49.30
18815;DHT22;76351;44.818;20.462;2024-02-21T11:28:03;16.40;50.90
18815;DHT22;76351;44.818;20.462;2024-02-21T11:30:35;16.40;50.80
18815;DHT22;76351;44.818;20.462;2024-02-21T11:33:06;16.50;50.60
18815;DHT22;76351;44.818;20.462;2024-02-21T11:35:35;16.60;50.40
18815;DHT22;76351;44.818;20.462;2024-02-21T11:38:10;16.60;50.60
18815;DHT22;76351;44.818;20.462;2024-02-21T11:40:45;16.70;49.60
18815;DHT22;76351;44.818;20.462;2024-02-21T11:43:13;16.80;49.70
18815;DHT22;76351;44.818;20.462;2024-02-21T11:45:46;16.90;50.10
18815;DHT22;76351;44.818;20.462;2024-02-21T11:48:17;17.10;50.50
18815;DHT22;76351;44.818;20.462;2024-02-21T11:50:53;17.20;49.40
18815;DHT22;76351;44.818;20.462;2024-02-21T11:53:21;17.30;49.10
18815;DHT22;76351;44.818;20.462;2024-02-21T11:55:56;17.40;48.60
18815;DHT22;76351;44.818;20.462;2024-02-21T11:58:24;17.40;47.80
18815;DHT22;76351;44.818;20.462;2024-02-21T12:00:56;17.40;47.80
18815;DHT22;76351;44.818;20.462;2024-02-21T12:03:26;17.40;48.20
18815;DHT22;76351;44.818;20.462;2024-02-21T12:05:55;17.40;48.20
18815;DHT22;76351;44.818;20.462;2024-02-21T12:08:26;17.40;47.80
18815;DHT22;76351;44.818;20.462;2024-02-21T12:10:55;17.40;47.90
18815;DHT22;76351;44.818;20.462;2024-02-21T12:13:23;17.30;47.70
18815;DHT22;76351;44.818;20.462;2024-02-21T12:15:55;17.30;47.30
18815;DHT22;76351;44.818;20.462;2024-02-21T12:18:23;17.20;47.70
18815;DHT22;76351;44.818;20.462;2024-02-21T12:20:51;17.10;47.00
18815;DHT22;76351;44.818;20.462;2024-02-21T12:23:20;17.10;48.00
18815;DHT22;76351;44.818;20.462;2024-02-21T12:25:48;17.10;47.90
18815;DHT22;76351;44.818;20.462;2024-02-21T12:28:20;17.00;47.00
18815;DHT22;76351;44.818;20.462;2024-02-21T12:30:49;16.90;48.20
18815;DHT22;76351;44.818;20.462;2024-02-21T12:33:21;16.90;47.50
18815;DHT22;76351;44.818;20.462;2024-02-21T12:35:52;16.90;48.20
18815;DHT22;76351;44.818;20.462;2024-02-21T12:38:21;16.90;47.30
18815;DHT22;76351;44.818;20.462;2024-02-21T12:40:56;16.90;47.10
18815;DHT22;76351;44.818;20.462;2024-02-21T12:43:26;16.90;48.00
18815;DHT22;76351;44.818;20.462;2024-02-21T12:45:55;16.90;47.80
18815;DHT22;76351;44.818;20.462;2024-02-21T12:48:30;16.90;47.90
18815;DHT22;76351;44.818;20.462;2024-02-21T12:51:00;16.90;48.80
18815;DHT22;76351;44.818;20.462;2024-02-21T12:53:32;17.00;47.30
18815;DHT22;76351;44.818;20.462;2024-02-21T12:56:00;17.00;47.70
18815;DHT22;76351;44.818;20.462;2024-02-21T12:58:34;17.00;48.10
18815;DHT22;76351;44.818;20.462;2024-02-21T13:01:03;17.10;47.70
18815;DHT22;76351;44.818;20.462;2024-02-21T13:03:33;17.20;47.70
18815;DHT22;76351;44.818;20.462;2024-02-21T13:06:01;17.20;47.30
18815;DHT22;76351;44.818;20.462;2024-02-21T13:08:31;17.30;48.30
18815;DHT22;76351;44.818;20.462;2024-02-21T13:11:02;17.40;46.90
18815;DHT22;76351;44.818;20.462;2024-02-21T13:13:30;17.50;47.20
18815;DHT22;76351;44.818;20.462;2024-02-21T13:15:58;17.50;47.30
18815;DHT22;76351;44.818;20.462;2024-02-21T13:18:34;17.60;47.30
18815;DHT22;76351;44.818;20.462;2024-02-21T13:21:04;17.70;46.60
18815;DHT22;76351;44.818;20.462;2024-02-21T13:23:56;17.70;46.60
18815;DHT22;76351;44.818;20.462;2024-02-21T13:26:34;17.70;46.30
18815;DHT22;76351;44.818;20.462;2024-02-21T13:29:02;17.70;46.40
18815;DHT22;76351;44.818;20.462;2024-02-21T13:31:34;17.70;45.90
18815;DHT22;76351;44.818;20.462;2024-02-21T13:34:18;17.60;46.30
18815;DHT22;76351;44.818;20.462;2024-02-21T13:36:48;17.60;46.00
18815;DHT22;76351;44.818;20.462;2024-02-21T13:39:54;17.50;45.90
18815;DHT22;76351;44.818;20.462;2024-02-21T13:42:33;17.40;45.70
18815;DHT22;76351;44.818;20.462;2024-02-21T13:45:01;17.30;46.10
18815;DHT22;76351;44.818;20.462;2024-02-21T13:47:32;17.20;46.20
18815;DHT22;76351;44.818;20.462;2024-02-21T13:50:04;17.00;46.20
18815;DHT22;76351;44.818;20.462;2024-02-21T13:52:35;17.00;46.40
18815;DHT22;76351;44.818;20.462;2024-02-21T13:55:07;17.00;46.10
18815;DHT22;76351;44.818;20.462;2024-02-21T13:57:38;16.90;47.00
18815;DHT22;76351;44.818;20.462;2024-02-21T14:00:06;16.90;47.00
18815;DHT22;76351;44.818;20.462;2024-02-21T14:02:39;16.90;47.40
18815;DHT22;76351;44.818;20.462;2024-02-21T14:05:09;16.90;47.00
18815;DHT22;76351;44.818;20.462;2024-02-21T14:07:38;17.00;47.00
18815;DHT22;76351;44.818;20.462;2024-02-21T14:10:16;17.00;46.40
18815;DHT22;76351;44.818;20.462;2024-02-21T14:12:45;17.10;47.10
18815;DHT22;76351;44.818;20.462;2024-02-21T14:15:17;17.20;45.80
18815;DHT22;76351;44.818;20.462;2024-02-21T14:18:19;17.20;45.70
18815;DHT22;76351;44.818;20.462;2024-02-21T14:20:49;17.30;46.20
18815;DHT22;76351;44.818;20.462;2024-02-21T14:23:17;17.20;45.60
18815;DHT22;76351;44.818;20.462;2024-02-21T14:25:46;17.20;45.60
18815;DHT22;76351;44.818;20.462;2024-02-21T14:28:15;17.20;46.60
18815;DHT22;76351;44.818;20.462;2024-02-21T14:30:47;17.10;45.70
18815;DHT22;76351;44.818;20.462;2024-02-21T14:33:19;17.10;45.60
18815;DHT22;76351;44.818;20.462;2024-02-21T14:35:51;17.00;45.20
18815;DHT22;76351;44.818;20.462;2024-02-21T14:38:23;17.00;46.40
18815;DHT22;76351;44.818;20.462;2024-02-21T14:41:10;16.90;45.70
18815;DHT22;76351;44.818;20.462;2024-02-21T14:43:43;16.90;46.20
18815;DHT22;76351;44.818;20.462;2024-02-21T14:46:15;16.80;45.50
18815;DHT22;76351;44.818;20.462;2024-02-21T14:48:42;16.80;45.60
18815;DHT22;76351;44.818;20.462;2024-02-21T14:51:18;16.70;46.00
18815;DHT22;76351;44.818;20.462;2024-02-21T14:53:47;16.70;46.10
18815;DHT22;76351;44.818;20.462;2024-02-21T14:56:18;16.70;46.00
18815;DHT22;76351;44.818;20.462;2024-02-21T14:58:44;16.70;45.80
18815;DHT22;76351;44.818;20.462;2024-02-21T15:01:13;16.70;46.00
18815;DHT22;76351;44.818;20.462;2024-02-21T15:03:42;16.70;45.70
18815;DHT22;76351;44.818;20.462;2024-02-21T15:06:15;16.60;46.00
18815;DHT22;76351;44.818;20.462;2024-02-21T15:08:59;16.70;47.30
18815;DHT22;76351;44.818;20.462;2024-02-21T15:11:41;16.60;45.70
18815;DHT22;76351;44.818;20.462;2024-02-21T15:14:11;16.60;46.30
18815;DHT22;76351;44.818;20.462;2024-02-21T15:16:39;16.60;46.30
18815;DHT22;76351;44.818;20.462;2024-02-21T15:19:06;16.60;46.90
18815;DHT22;76351;44.818;20.462;2024-02-21T15:21:34;16.60;47.00
18815;DHT22;76351;44.818;20.462;2024-02-21T15:24:10;16.60;47.10
18815;DHT22;76351;44.818;20.462;2024-02-21T15:26:38;16.60;46.90
18815;DHT22;76351;44.818;20.462;2024-02-21T15:29:09;16.60;46.40
18815;DHT22;76351;44.818;20.462;2024-02-21T15:31:45;16.60;46.30